Airfield :
LOGIN :

Register | Disclaimer

   EN    FR    IT 

 










Legend :    VFR   Marginal VFR   IFR   Intensive IFR   Very Intensive IFR
Visi :
Ceiling :
>= 8 km
>= 3000ft
5 to 8 km
1000 to 3000 ft
1500m to 5 km
500 to 1000 ft
800 to 1500m
200 to 500 ft
< 800m
< 200 ft
Symbols :   Thunderstorms  Fog  Heavy snow  Heavy precipitations  Wind > 20 kt
SIGMETs :     Misc.  Thunderstorms  Icing  Turbulence  Mountain Waves  Volcanic Ashes







- Airport Elevation : 74 ft
- IATA code : MRS
- Download approach charts


LFML - Marseille / Marignane

CURRENT METAR :
  • 191430Z AUTO 24007KT CAVOK 14/05 Q1022 NOSIG

EXPIRED METARs :
  • 191400Z AUTO 25006KT 9999 4800 NSC 14/05 Q1022 NOSIG
  • 191330Z AUTO 25006KT 9999 FEW041 14/05 Q1022 NOSIG
  • 191300Z AUTO 25006KT 9999 FEW042 14/05 Q1023 NOSIG
  • 191230Z AUTO 25004KT 9999 4100 SCT043 14/05 Q1023 NOSIG
  • 191200Z AUTO 26003KT 240V300 9999 FEW045 14/04 Q1023 NOSIG

TAF TAF LFML
Valid from the 19 at 15:00 until the 20 at 21:00 UTC


191400Z 1915/2021 VRB05KT CAVOK TX15/1915Z TN02/2006Z
TEMPO 1915/1919 25007KT
TEMPO 1921/2006 2500 BR BKN025
TEMPO 2015/2019 25007KT
ATIS : +33 4 42 31 15 15
No reported NOTAMs for that airfield.



MET'MAP, your aeronautical weather chart ! - Copyright ORBIFLY December 2007 - Disclaimer

ORBIFLY MET'MAP TEAM :

Programming & Development : Alexandra Zaïnal
Concept & Development : Baudouin d'Aumeries
Co-Development & Prog : Marc-Olivier Méhu
Technical & hardware support : Manuel Goepfert

Contact : metmap@orbifly.com




SOURCES & CREDITS :

   NOAA